createdAt,value
2023-05-02T00:01:37.345Z,8.43
2023-05-02T00:06:42.521Z,8.35
2023-05-02T00:11:49.073Z,8.15
2023-05-02T00:16:53.069Z,8.02
2023-05-02T00:21:57.023Z,7.89
2023-05-02T00:27:02.432Z,7.77
2023-05-02T00:32:07.509Z,7.65
2023-05-02T00:37:11.691Z,7.59
2023-05-02T00:42:18.752Z,7.54
2023-05-02T00:47:22.741Z,7.34
2023-05-02T00:52:28.704Z,7.35
2023-05-02T00:57:37.726Z,7.26
2023-05-02T01:02:52.236Z,7.07
2023-05-02T01:08:09.189Z,7.06
2023-05-02T01:13:21.984Z,7.06
2023-05-02T01:18:29.319Z,6.97
2023-05-02T01:23:36.713Z,7.19
2023-05-02T01:29:03.717Z,7.51
2023-05-02T01:34:11.896Z,7.45
2023-05-02T01:39:21.678Z,7.19
2023-05-02T01:44:28.450Z,7.10
2023-05-02T01:49:35.324Z,7.00
2023-05-02T01:54:41.836Z,6.93
2023-05-02T01:59:49.598Z,6.86
2023-05-02T02:04:56.029Z,6.78
2023-05-02T02:10:02.124Z,6.67
2023-05-02T02:15:15.019Z,6.45
2023-05-02T02:20:20.018Z,6.61
2023-05-02T02:25:25.641Z,6.58
2023-05-02T02:30:31.212Z,6.49
2023-05-02T02:35:41.168Z,6.60
2023-05-02T02:40:49.272Z,6.55
2023-05-02T02:46:03.157Z,6.58
2023-05-02T02:51:14.156Z,6.61
2023-05-02T02:56:23.569Z,6.48
2023-05-02T03:01:32.522Z,6.35
2023-05-02T03:06:36.684Z,6.34
2023-05-02T03:11:42.088Z,6.25
2023-05-02T03:16:50.925Z,6.28
2023-05-02T03:21:54.990Z,6.44
2023-05-02T03:27:00.034Z,6.68
2023-05-02T03:32:11.585Z,6.57
2023-05-02T03:37:17.601Z,7.14
2023-05-02T03:48:01.714Z,6.91
2023-05-02T03:53:08.001Z,7.09
2023-05-02T03:58:21.019Z,7.10
2023-05-02T04:03:29.303Z,7.14
2023-05-02T04:08:35.735Z,7.17
2023-05-02T04:13:40.108Z,7.26
2023-05-02T04:18:45.880Z,7.42
2023-05-02T04:23:51.557Z,7.93
2023-05-02T04:28:56.160Z,8.38
2023-05-02T04:34:01.713Z,8.70
2023-05-02T04:39:11.618Z,9.25
2023-05-02T04:44:20.819Z,9.77
2023-05-02T04:49:26.779Z,10.19
2023-05-02T04:54:30.781Z,10.63
2023-05-02T04:59:36.865Z,10.94
2023-05-02T05:04:42.245Z,11.34
2023-05-02T05:09:46.849Z,11.46
2023-05-02T05:14:51.742Z,11.65
2023-05-02T05:20:01.207Z,12.05
2023-05-02T05:25:06.666Z,12.18
2023-05-02T05:30:11.566Z,12.28
2023-05-02T05:35:17.744Z,12.73
2023-05-02T05:40:22.462Z,12.98
2023-05-02T05:45:31.983Z,13.27
2023-05-02T05:50:37.398Z,13.42
2023-05-02T05:55:42.499Z,13.84
2023-05-02T06:00:47.218Z,14.37
2023-05-02T06:05:52.694Z,14.40
2023-05-02T06:10:56.762Z,14.94
2023-05-02T06:16:02.918Z,14.80
2023-05-02T06:21:08.872Z,14.88
2023-05-02T06:26:12.924Z,15.20
2023-05-02T06:31:17.600Z,15.59
2023-05-02T06:36:22.961Z,15.56
2023-05-02T06:41:26.839Z,15.53
2023-05-02T06:46:31.962Z,16.04
2023-05-02T06:51:37.376Z,16.02
2023-05-02T06:56:41.330Z,15.92
2023-05-02T07:01:45.623Z,15.71
2023-05-02T07:07:10.900Z,15.58
2023-05-02T07:12:14.867Z,16.30
2023-05-02T07:17:19.008Z,16.57
2023-05-02T07:22:28.122Z,17.08
2023-05-02T07:27:31.869Z,17.21
2023-05-02T07:32:35.732Z,17.42
2023-05-02T07:37:42.152Z,17.41
2023-05-02T07:42:46.855Z,17.10
2023-05-02T07:47:50.796Z,17.35
2023-05-02T07:52:56.594Z,17.52
2023-05-02T07:58:07.169Z,18.72
2023-05-02T08:03:10.951Z,18.62
2023-05-02T08:08:16.165Z,18.20
2023-05-02T08:13:20.154Z,18.56
2023-05-02T08:18:24.089Z,18.50
2023-05-02T08:23:29.516Z,18.64
2023-05-02T08:28:33.412Z,19.04
2023-05-02T08:33:37.396Z,18.71
2023-05-02T08:38:42.836Z,19.09
2023-05-02T08:43:52.366Z,19.41
2023-05-02T08:49:02.269Z,19.66
2023-05-02T08:54:10.736Z,19.37
2023-05-02T08:59:16.288Z,19.17
2023-05-02T09:04:25.284Z,19.53
2023-05-02T09:09:31.814Z,20.12
2023-05-02T09:14:36.158Z,20.65
2023-05-02T09:19:40.131Z,20.44
2023-05-02T09:24:46.021Z,19.20
2023-05-02T09:29:55.351Z,20.15
2023-05-02T09:35:09.127Z,21.31
2023-05-02T09:40:18.391Z,20.40
2023-05-02T09:45:24.537Z,19.28
2023-05-02T09:50:36.369Z,20.60
2023-05-02T09:55:42.138Z,20.32
2023-05-02T10:00:46.593Z,20.71
2023-05-02T10:05:51.061Z,20.90
2023-05-02T10:10:57.613Z,20.60
2023-05-02T10:16:02.792Z,20.12
2023-05-02T10:26:40.945Z,20.66
2023-05-02T10:31:50.422Z,21.19
2023-05-02T10:36:54.822Z,22.14
2023-05-02T10:42:03.204Z,21.77
2023-05-02T10:47:20.371Z,21.88
2023-05-02T10:52:29.209Z,22.22
2023-05-02T10:57:34.709Z,22.42
2023-05-02T11:08:32.659Z,22.18
2023-05-02T11:13:52.848Z,23.40
2023-05-02T11:19:04.448Z,23.13
2023-05-02T11:24:39.454Z,23.49
2023-05-02T11:29:58.225Z,23.45
2023-05-02T11:35:04.476Z,22.98
2023-05-02T11:40:34.119Z,23.39
2023-05-02T11:45:43.564Z,23.93
2023-05-02T11:50:50.483Z,23.20
2023-05-02T11:55:56.675Z,23.46
2023-05-02T12:01:13.282Z,23.76
2023-05-02T12:06:18.945Z,22.62
2023-05-02T12:11:24.752Z,23.02
2023-05-02T12:16:30.538Z,21.60
2023-05-02T12:21:34.921Z,21.15
2023-05-02T12:26:38.863Z,20.52
2023-05-02T12:31:52.317Z,20.17
2023-05-02T12:36:56.810Z,20.73
2023-05-02T12:42:02.529Z,20.20
2023-05-02T12:47:08.352Z,20.18
2023-05-02T12:52:12.260Z,21.09
2023-05-02T12:57:26.303Z,21.70
2023-05-02T13:02:32.030Z,21.88
2023-05-02T13:07:40.508Z,21.99
2023-05-02T13:12:45.122Z,22.08
2023-05-02T13:17:55.745Z,21.93
2023-05-02T13:22:59.718Z,22.14
2023-05-02T13:28:03.765Z,21.52
2023-05-02T13:33:10.660Z,21.49
2023-05-02T13:38:14.338Z,20.61
2023-05-02T13:43:42.982Z,21.35
2023-05-02T13:48:48.250Z,20.64
2023-05-02T13:53:52.167Z,21.11
2023-05-02T13:58:56.524Z,21.55
2023-05-02T14:04:06.983Z,21.23
2023-05-02T14:09:11.395Z,20.72
2023-05-02T14:14:18.665Z,20.24
2023-05-02T14:19:23.972Z,20.39
2023-05-02T14:24:28.004Z,20.18
2023-05-02T14:29:31.952Z,20.05
2023-05-02T14:34:37.260Z,19.43
2023-05-02T14:39:46.309Z,19.66
2023-05-02T14:44:54.645Z,19.06
2023-05-02T14:50:00.208Z,19.49
2023-05-02T14:55:04.744Z,19.46
2023-05-02T15:00:11.490Z,19.71
2023-05-02T15:05:16.974Z,18.79
2023-05-02T15:10:21.187Z,18.65
2023-05-02T15:15:25.459Z,18.58
2023-05-02T15:20:30.800Z,18.33
2023-05-02T15:31:02.186Z,18.07
2023-05-02T15:36:08.221Z,17.67
2023-05-02T15:41:12.306Z,17.62
2023-05-02T15:46:16.256Z,17.57
2023-05-02T15:51:21.578Z,17.98
2023-05-02T15:56:25.756Z,17.87
2023-05-02T16:01:29.688Z,17.45
2023-05-02T16:06:35.119Z,17.33
2023-05-02T16:11:39.209Z,17.53
2023-05-02T16:16:44.774Z,17.28
2023-05-02T16:21:50.118Z,16.62
2023-05-02T16:26:54.029Z,15.92
2023-05-02T16:31:59.897Z,15.64
2023-05-02T16:37:05.552Z,15.24
2023-05-02T16:42:09.573Z,15.11
2023-05-02T16:47:13.536Z,14.60
2023-05-02T16:52:22.099Z,14.42
2023-05-02T16:57:26.051Z,14.25
2023-05-02T17:02:30.062Z,14.07
2023-05-02T17:07:35.499Z,13.84
2023-05-02T17:12:39.438Z,13.67
2023-05-02T17:17:43.475Z,13.42
2023-05-02T17:28:16.696Z,13.11
2023-05-02T17:33:20.597Z,13.15
2023-05-02T17:38:26.972Z,13.20
2023-05-02T17:43:30.977Z,12.93
2023-05-02T17:48:35.278Z,12.83
2023-05-02T17:53:40.682Z,12.50
2023-05-02T17:58:44.541Z,12.47
2023-05-02T18:03:48.651Z,12.29
2023-05-02T18:08:54.009Z,12.02
2023-05-02T18:14:01.837Z,12.03
2023-05-02T18:19:06.134Z,12.05
2023-05-02T18:24:11.399Z,11.79
2023-05-02T18:29:15.819Z,11.43
2023-05-02T18:34:20.244Z,11.13
2023-05-02T18:39:25.728Z,10.98
2023-05-02T18:44:29.807Z,10.83
2023-05-02T18:49:35.733Z,10.76
2023-05-02T18:54:41.079Z,10.86
2023-05-02T18:59:45.021Z,11.10
2023-05-02T19:04:49.277Z,11.11
2023-05-02T19:09:54.559Z,11.15
2023-05-02T19:14:58.573Z,11.17
2023-05-02T19:20:02.460Z,11.23
2023-05-02T19:25:12.994Z,11.22
2023-05-02T19:30:18.978Z,11.17
2023-05-02T19:35:24.333Z,11.06
2023-05-02T19:40:31.085Z,11.01
2023-05-02T19:45:37.101Z,11.02
2023-05-02T19:50:43.040Z,11.03
2023-05-02T19:55:48.602Z,10.92
2023-05-02T20:00:52.885Z,10.83
2023-05-02T20:05:58.437Z,10.83
2023-05-02T20:11:07.184Z,10.78
2023-05-02T20:16:13.119Z,10.71
2023-05-02T20:21:17.453Z,10.70
2023-05-02T20:26:22.756Z,10.58
2023-05-02T20:31:27.114Z,10.58
2023-05-02T20:36:32.338Z,10.53
2023-05-02T20:41:37.827Z,10.49
2023-05-02T20:46:41.799Z,10.43
2023-05-02T20:51:47.214Z,10.39
2023-05-02T20:56:52.545Z,10.36
2023-05-02T21:01:56.643Z,10.25
2023-05-02T21:07:01.072Z,10.30
2023-05-02T21:12:06.706Z,10.27
2023-05-02T21:17:10.613Z,10.24
2023-05-02T21:22:14.808Z,10.17
2023-05-02T21:27:20.302Z,10.15
2023-05-02T21:32:27.980Z,10.11
2023-05-02T21:37:32.078Z,9.97
2023-05-02T21:42:37.363Z,9.91
2023-05-02T21:47:41.312Z,9.85
2023-05-02T21:52:46.964Z,9.72
2023-05-02T21:57:52.232Z,9.70
2023-05-02T22:02:56.500Z,9.69
2023-05-02T22:08:00.855Z,9.74
2023-05-02T22:13:06.661Z,9.75
2023-05-02T22:18:10.722Z,9.65
2023-05-02T22:23:14.773Z,9.60
2023-05-02T22:28:20.421Z,9.68
2023-05-02T22:33:24.318Z,9.71
2023-05-02T22:38:28.341Z,9.76
2023-05-02T22:43:33.860Z,9.59
2023-05-02T22:48:37.776Z,9.66
2023-05-02T22:53:42.011Z,9.63
2023-05-02T22:58:51.241Z,9.66
2023-05-02T23:03:55.262Z,9.56
2023-05-02T23:08:59.466Z,9.72
2023-05-02T23:14:08.310Z,9.66
2023-05-02T23:19:12.352Z,9.55
2023-05-02T23:24:16.366Z,9.57
2023-05-02T23:29:21.650Z,9.49
2023-05-02T23:34:29.278Z,9.46
2023-05-02T23:39:33.859Z,9.44
2023-05-02T23:44:39.325Z,9.41
2023-05-02T23:49:43.321Z,9.39
2023-05-02T23:54:47.514Z,9.37
2023-05-02T23:59:53.478Z,9.37
